createdAt,value
2023-01-21T00:00:29.767Z,100172.88
2023-01-21T00:01:11.897Z,100168.31
2023-01-21T00:01:53.666Z,100170.91
2023-01-21T00:02:35.372Z,100185.81
2023-01-21T00:03:17.156Z,100187.59
2023-01-21T00:03:59.989Z,100184.56
2023-01-21T00:04:41.613Z,100170.22
2023-01-21T00:05:26.263Z,100180.63
2023-01-21T00:06:08.596Z,100173.75
2023-01-21T00:06:50.269Z,100190.41
2023-01-21T00:07:31.982Z,100175.28
2023-01-21T00:08:16.406Z,100179.81
2023-01-21T00:09:00.970Z,100175.44
2023-01-21T00:09:42.674Z,100184.66
2023-01-21T00:10:24.349Z,100194.56
2023-01-21T00:11:14.710Z,100184.66
2023-01-21T00:11:57.467Z,100202.25
2023-01-21T00:12:39.190Z,100183.63
2023-01-21T00:13:21.287Z,100178.72
2023-01-21T00:14:02.984Z,100198.94
2023-01-21T00:14:44.923Z,100190.34
2023-01-21T00:15:26.736Z,100182.00
2023-01-21T00:16:09.104Z,100196.97
2023-01-21T00:16:50.794Z,100179.69
2023-01-21T00:17:35.856Z,100193.53
2023-01-21T00:18:17.581Z,100195.66
2023-01-21T00:18:59.266Z,100192.59
2023-01-21T00:19:40.895Z,100171.19
2023-01-21T00:20:22.627Z,100193.97
2023-01-21T00:21:04.342Z,100170.28
2023-01-21T00:21:46.644Z,100192.63
2023-01-21T00:22:28.866Z,100182.97
2023-01-21T00:23:10.961Z,100190.97
2023-01-21T00:23:52.713Z,100190.84
2023-01-21T00:24:34.360Z,100188.59
2023-01-21T00:25:16.088Z,100193.06
2023-01-21T00:26:02.057Z,100193.06
2023-01-21T00:26:43.885Z,100195.69
2023-01-21T00:27:25.658Z,100194.94
2023-01-21T00:28:07.391Z,100188.16
2023-01-21T00:28:49.176Z,100190.88
2023-01-21T00:29:30.851Z,100190.88
2023-01-21T00:30:12.954Z,100183.72
2023-01-21T00:31:02.357Z,100180.47
2023-01-21T00:31:44.525Z,100190.59
2023-01-21T00:32:26.256Z,100197.56
2023-01-21T00:33:08.142Z,100181.66
2023-01-21T00:33:50.244Z,100194.97
2023-01-21T00:34:31.936Z,100193.19
2023-01-21T00:35:13.730Z,100173.41
2023-01-21T00:36:07.917Z,100198.41
2023-01-21T00:36:49.681Z,100195.91
2023-01-21T00:37:34.110Z,100174.25
2023-01-21T00:38:15.772Z,100170.06
2023-01-21T00:38:57.665Z,100182.59
2023-01-21T00:39:42.823Z,100201.94
2023-01-21T00:40:24.761Z,100186.75
2023-01-21T00:41:11.590Z,100186.13
2023-01-21T00:41:53.335Z,100200.28
2023-01-21T00:42:35.109Z,100190.19
2023-01-21T00:43:16.746Z,100198.41
2023-01-21T00:43:58.453Z,100182.69
2023-01-21T00:44:40.122Z,100201.84
2023-01-21T00:45:21.763Z,100175.53
2023-01-21T00:46:03.989Z,100197.19
2023-01-21T00:46:45.739Z,100173.84
2023-01-21T00:47:27.433Z,100206.31
2023-01-21T00:48:09.106Z,100208.94
2023-01-21T00:48:50.785Z,100170.50
2023-01-21T00:49:32.696Z,100179.66
2023-01-21T00:50:14.495Z,100181.22
2023-01-21T00:51:00.415Z,100216.44
2023-01-21T00:51:42.224Z,100204.03
2023-01-21T00:52:23.895Z,100218.94
2023-01-21T00:53:05.589Z,100195.41
2023-01-21T00:53:47.323Z,100212.78
2023-01-21T00:54:34.554Z,100213.41
2023-01-21T00:55:16.326Z,100207.97
2023-01-21T00:56:02.165Z,100221.41
2023-01-21T00:56:44.073Z,100216.31
2023-01-21T00:57:25.796Z,100195.69
2023-01-21T00:58:07.480Z,100224.00
2023-01-21T00:58:49.363Z,100221.28
2023-01-21T00:59:31.260Z,100195.41
2023-01-21T01:00:15.228Z,100227.34
2023-01-21T01:01:05.926Z,100227.34
2023-01-21T01:01:47.612Z,100199.63
2023-01-21T01:02:29.288Z,100228.19
2023-01-21T01:03:11.176Z,100210.47
2023-01-21T01:03:52.840Z,100220.59
2023-01-21T01:04:34.542Z,100204.75
2023-01-21T01:05:16.517Z,100226.31
2023-01-21T01:06:21.794Z,100225.47
2023-01-21T01:07:03.587Z,100215.59
2023-01-21T01:07:47.563Z,100203.28
2023-01-21T01:08:29.308Z,100205.38
2023-01-21T01:09:13.905Z,100209.81
2023-01-21T01:09:55.520Z,100227.31
2023-01-21T01:10:37.864Z,100232.44
2023-01-21T01:11:21.587Z,100233.47
2023-01-21T01:12:03.721Z,100221.28
2023-01-21T01:12:45.512Z,100207.34
2023-01-21T01:13:28.152Z,100238.19
2023-01-21T01:14:09.898Z,100240.28
2023-01-21T01:14:51.585Z,100241.22
2023-01-21T01:15:33.293Z,100223.09
2023-01-21T01:16:16.100Z,100237.78
2023-01-21T01:16:57.848Z,100243.81
2023-01-21T01:17:39.584Z,100241.44
2023-01-21T01:18:22.470Z,100236.66
2023-01-21T01:19:04.186Z,100230.50
2023-01-21T01:19:45.930Z,100242.38
2023-01-21T01:20:27.662Z,100212.56
2023-01-21T01:21:15.346Z,100241.31
2023-01-21T01:21:57.017Z,100245.84
2023-01-21T01:22:38.644Z,100252.72
2023-01-21T01:23:20.399Z,100239.81
2023-01-21T01:24:03.243Z,100249.78
2023-01-21T01:24:44.983Z,100231.44
2023-01-21T01:25:29.434Z,100221.78
2023-01-21T01:26:13.782Z,100253.31
2023-01-21T01:26:55.459Z,100247.09
2023-01-21T01:27:37.132Z,100237.50
2023-01-21T01:28:18.808Z,100237.50
2023-01-21T01:29:00.584Z,100256.88
2023-01-21T01:29:42.317Z,100239.91
2023-01-21T01:30:26.654Z,100251.56
2023-01-21T01:31:13.087Z,100254.69
2023-01-21T01:31:57.534Z,100225.94
2023-01-21T01:32:39.211Z,100253.84
2023-01-21T01:33:21.273Z,100249.06
2023-01-21T01:34:02.898Z,100244.19
2023-01-21T01:34:45.023Z,100249.78
2023-01-21T01:35:26.938Z,100258.63
2023-01-21T01:36:13.339Z,100248.44
2023-01-21T01:36:55.032Z,100259.81
2023-01-21T01:37:36.724Z,100232.91
2023-01-21T01:38:21.262Z,100265.31
2023-01-21T01:39:02.870Z,100236.13
2023-01-21T01:39:44.578Z,100247.91
2023-01-21T01:40:26.238Z,100248.84
2023-01-21T01:41:08.814Z,100262.19
2023-01-21T01:41:50.455Z,100244.69
2023-01-21T01:42:32.111Z,100247.38
2023-01-21T01:43:21.959Z,100257.19
2023-01-21T01:44:06.282Z,100261.66
2023-01-21T01:45:01.830Z,100258.53
2023-01-21T01:45:44.127Z,100253.66
2023-01-21T01:46:28.668Z,100258.84
2023-01-21T01:47:10.658Z,100268.75
2023-01-21T01:48:00.812Z,100268.13
2023-01-21T01:48:54.771Z,100204.88
2023-01-21T01:49:36.812Z,100265.09
2023-01-21T01:50:20.032Z,100203.69
2023-01-21T01:51:04.539Z,100264.47
2023-01-21T01:51:54.992Z,100267.59
2023-01-21T01:52:37.100Z,100254.75
2023-01-21T01:53:19.877Z,100262.38
2023-01-21T01:54:02.601Z,100263.31
2023-01-21T01:54:49.900Z,100277.38
2023-01-21T01:55:35.365Z,100244.34
2023-01-21T01:56:17.078Z,100256.00
2023-01-21T01:57:01.733Z,100259.66
2023-01-21T01:57:48.171Z,100260.06
2023-01-21T01:58:31.474Z,100272.78
2023-01-21T01:59:13.586Z,100274.38
2023-01-21T01:59:55.218Z,100265.38
2023-01-21T02:00:36.997Z,100280.50
2023-01-21T02:01:18.773Z,100268.63
2023-01-21T02:02:06.081Z,100283.00
2023-01-21T02:03:07.964Z,100286.56
2023-01-21T02:03:58.454Z,100274.94
2023-01-21T02:04:47.948Z,100296.22
2023-01-21T02:05:29.708Z,100295.50
2023-01-21T02:06:16.273Z,100289.44
2023-01-21T02:06:58.161Z,100273.59
2023-01-21T02:07:44.414Z,100288.72
2023-01-21T02:08:27.414Z,100293.06
2023-01-21T02:09:09.088Z,100279.66
2023-01-21T02:09:53.635Z,100262.31
2023-01-21T02:10:36.216Z,100294.34
2023-01-21T02:11:19.859Z,100295.34
2023-01-21T02:12:03.717Z,100300.75
2023-01-21T02:12:45.483Z,100299.28
2023-01-21T02:13:30.186Z,100277.06
2023-01-21T02:14:12.115Z,100297.09
2023-01-21T02:14:53.839Z,100305.09
2023-01-21T02:15:38.442Z,100299.97
2023-01-21T02:16:41.964Z,100299.25
2023-01-21T02:17:32.748Z,100290.34
2023-01-21T02:18:27.875Z,100300.56
2023-01-21T02:19:47.001Z,100308.38
2023-01-21T02:21:09.564Z,100300.78
2023-01-21T02:21:53.909Z,100304.53
2023-01-21T02:22:50.934Z,100302.84
2023-01-21T02:24:07.921Z,100288.22
2023-01-21T02:25:34.403Z,100316.22
2023-01-21T02:26:31.210Z,100308.75
2023-01-21T02:27:36.038Z,100308.84
2023-01-21T02:28:29.810Z,100309.03
2023-01-21T02:29:31.280Z,100314.22
2023-01-21T02:30:30.533Z,100309.94
2023-01-21T02:31:44.019Z,100315.25
2023-01-21T02:32:50.989Z,100318.88
2023-01-21T02:33:54.420Z,100315.41
2023-01-21T02:34:55.220Z,100316.25
2023-01-21T02:35:48.732Z,100318.97
2023-01-21T02:36:43.337Z,100315.41
2023-01-21T02:38:00.089Z,100311.91
2023-01-21T02:38:46.248Z,100319.78
2023-01-21T02:40:02.073Z,100325.91
2023-01-21T02:41:03.173Z,100296.81
2023-01-21T02:41:53.882Z,100334.56
2023-01-21T02:42:41.647Z,100333.84
2023-01-21T02:43:52.306Z,100329.66
2023-01-21T02:44:37.667Z,100333.00
2023-01-21T02:45:26.267Z,100322.97
2023-01-21T02:46:40.066Z,100331.25
2023-01-21T02:47:33.327Z,100317.25
2023-01-21T02:48:20.017Z,100341.66
2023-01-21T02:49:11.589Z,100329.66
2023-01-21T02:49:59.620Z,100334.78
2023-01-21T02:50:52.430Z,100337.47
2023-01-21T02:51:35.442Z,100324.00
2023-01-21T02:52:22.829Z,100332.63
2023-01-21T02:53:05.150Z,100321.97
2023-01-21T02:53:47.674Z,100317.88
2023-01-21T02:54:41.220Z,100341.09
2023-01-21T02:55:26.867Z,100333.28
2023-01-21T02:56:14.047Z,100340.16
2023-01-21T02:56:55.766Z,100322.81
2023-01-21T02:57:43.261Z,100326.81
2023-01-21T02:58:29.003Z,100336.06
2023-01-21T02:59:11.226Z,100337.91
2023-01-21T02:59:55.728Z,100335.53
2023-01-21T03:01:06.350Z,100315.50
2023-01-21T03:02:25.773Z,100342.59
2023-01-21T03:03:28.808Z,100340.09
2023-01-21T03:04:19.657Z,100338.69
2023-01-21T03:05:29.552Z,100318.75
2023-01-21T03:06:13.777Z,100344.63
2023-01-21T03:07:20.545Z,100314.28
2023-01-21T03:08:09.861Z,100323.56
2023-01-21T03:08:55.885Z,100294.16
2023-01-21T03:09:37.688Z,100332.75
2023-01-21T03:10:24.315Z,100338.31
2023-01-21T03:11:17.740Z,100344.78
2023-01-21T03:12:11.047Z,100316.13
2023-01-21T03:12:53.786Z,100355.56
2023-01-21T03:14:08.436Z,100340.34
2023-01-21T03:15:28.135Z,100350.06
2023-01-21T03:16:32.686Z,100328.25
2023-01-21T03:17:27.303Z,100346.84
2023-01-21T03:18:18.632Z,100294.22
2023-01-21T03:19:06.146Z,100344.16
2023-01-21T03:20:02.878Z,100323.28
2023-01-21T03:20:49.457Z,100323.38
2023-01-21T03:21:33.381Z,100344.16
2023-01-21T03:22:19.706Z,100353.72
2023-01-21T03:23:10.763Z,100317.91
2023-01-21T03:23:53.865Z,100348.81
2023-01-21T03:24:39.863Z,100352.34
2023-01-21T03:25:22.717Z,100342.41
2023-01-21T03:26:07.148Z,100325.50
2023-01-21T03:26:52.475Z,100324.31
2023-01-21T03:27:37.671Z,100355.59
2023-01-21T03:28:26.227Z,100353.91
2023-01-21T03:29:13.882Z,100356.44
2023-01-21T03:30:02.436Z,100333.88
2023-01-21T03:30:47.409Z,100354.66
2023-01-21T03:31:33.369Z,100351.31
2023-01-21T03:32:18.579Z,100344.53
2023-01-21T03:33:02.088Z,100334.22
2023-01-21T03:33:46.891Z,100340.44
2023-01-21T03:34:33.220Z,100355.41
2023-01-21T03:35:20.976Z,100333.13
2023-01-21T03:36:13.759Z,100346.13
2023-01-21T03:37:07.750Z,100360.59
2023-01-21T03:37:58.860Z,100360.78
2023-01-21T03:38:48.122Z,100333.88
2023-01-21T03:40:03.832Z,100355.69
2023-01-21T03:40:56.523Z,100359.13
2023-01-21T03:41:39.644Z,100355.75
2023-01-21T03:42:22.829Z,100359.13
2023-01-21T03:43:04.652Z,100330.16
2023-01-21T03:43:46.622Z,100365.34
2023-01-21T03:44:28.274Z,100334.63
2023-01-21T03:45:10.631Z,100358.09
2023-01-21T03:46:15.952Z,100363.13
2023-01-21T03:47:05.827Z,100363.38
2023-01-21T03:47:55.018Z,100367.47
2023-01-21T03:48:45.969Z,100370.91
2023-01-21T03:49:33.710Z,100372.38
2023-01-21T03:50:26.577Z,100361.16
2023-01-21T03:51:13.786Z,100368.03
2023-01-21T03:51:59.761Z,100373.31
2023-01-21T03:52:43.189Z,100378.72
2023-01-21T03:53:25.271Z,100376.22
2023-01-21T03:54:06.974Z,100378.81
2023-01-21T03:54:49.239Z,100374.72
2023-01-21T03:55:30.874Z,100351.41
2023-01-21T03:56:15.247Z,100377.41
2023-01-21T03:56:59.511Z,100376.66
2023-01-21T03:57:41.367Z,100381.22
2023-01-21T03:58:22.970Z,100382.31
2023-01-21T03:59:04.616Z,100376.28
2023-01-21T03:59:46.762Z,100343.06
2023-01-21T04:00:28.524Z,100360.59
2023-01-21T04:01:11.264Z,100381.03
2023-01-21T04:01:53.030Z,100388.00
2023-01-21T04:02:34.763Z,100383.06
2023-01-21T04:03:16.476Z,100384.91
2023-01-21T04:03:58.164Z,100390.09
2023-01-21T04:04:39.844Z,100367.69
2023-01-21T04:05:21.542Z,100395.56
2023-01-21T04:06:03.208Z,100383.78
2023-01-21T04:06:44.923Z,100382.38
2023-01-21T04:07:29.747Z,100340.56
2023-01-21T04:08:11.389Z,100399.38
2023-01-21T04:08:53.058Z,100401.22
2023-01-21T04:09:34.770Z,100387.75
2023-01-21T04:10:17.611Z,100393.78
2023-01-21T04:10:59.460Z,100398.25
2023-01-21T04:11:41.117Z,100399.25
2023-01-21T04:12:23.072Z,100400.25
2023-01-21T04:13:10.066Z,100378.06
2023-01-21T04:13:51.690Z,100401.25
2023-01-21T04:14:35.947Z,100392.25
2023-01-21T04:15:18.927Z,100378.59
2023-01-21T04:16:03.074Z,100397.81
2023-01-21T04:16:44.761Z,100412.31
2023-01-21T04:17:28.257Z,100406.47
2023-01-21T04:18:09.916Z,100372.56
2023-01-21T04:18:54.178Z,100394.88
2023-01-21T04:19:35.849Z,100404.19
2023-01-21T04:20:18.142Z,100388.28
2023-01-21T04:21:00.159Z,100404.81
2023-01-21T04:21:41.856Z,100409.00
2023-01-21T04:22:23.488Z,100412.63
2023-01-21T04:23:05.143Z,100375.56
2023-01-21T04:23:46.765Z,100413.09
2023-01-21T04:24:28.461Z,100393.03
2023-01-21T04:25:10.254Z,100411.06
2023-01-21T04:25:54.723Z,100411.81
2023-01-21T04:26:36.331Z,100410.22
2023-01-21T04:27:17.936Z,100389.53
2023-01-21T04:27:59.903Z,100415.16
2023-01-21T04:28:42.603Z,100415.16
2023-01-21T04:29:24.260Z,100396.78
2023-01-21T04:30:06.641Z,100385.03
2023-01-21T04:30:48.825Z,100408.38
2023-01-21T04:31:30.760Z,100403.19
2023-01-21T04:32:12.712Z,100390.34
2023-01-21T04:32:54.341Z,100387.88
2023-01-21T04:33:35.951Z,100417.78
2023-01-21T04:34:17.700Z,100415.19
2023-01-21T04:34:59.394Z,100420.28
2023-01-21T04:35:41.141Z,100391.03
2023-01-21T04:36:22.876Z,100418.63
2023-01-21T04:37:06.808Z,100415.84
2023-01-21T04:37:48.485Z,100399.22
2023-01-21T04:38:30.370Z,100424.28
2023-01-21T04:39:12.144Z,100413.50
2023-01-21T04:39:53.849Z,100385.28
2023-01-21T04:40:38.231Z,100398.81
2023-01-21T04:41:19.882Z,100416.94
2023-01-21T04:42:01.585Z,100400.50
2023-01-21T04:42:43.356Z,100423.72
2023-01-21T04:43:25.290Z,100410.25
2023-01-21T04:44:07.116Z,100392.78
2023-01-21T04:44:48.761Z,100400.97
2023-01-21T04:45:30.397Z,100422.59
2023-01-21T04:46:12.065Z,100428.53
2023-01-21T04:46:53.688Z,100424.28
2023-01-21T04:47:35.336Z,100416.38
2023-01-21T04:48:17.534Z,100393.44
2023-01-21T04:48:59.358Z,100417.31
2023-01-21T04:49:41.021Z,100394.13
2023-01-21T04:50:22.675Z,100417.59
2023-01-21T04:51:06.344Z,100405.13
2023-01-21T04:51:48.005Z,100403.47
2023-01-21T04:52:30.379Z,100382.84
2023-01-21T04:53:12.068Z,100420.38
2023-01-21T04:53:53.736Z,100406.34
2023-01-21T04:54:35.438Z,100388.59
2023-01-21T04:55:19.795Z,100430.94
2023-01-21T04:56:01.488Z,100419.16
2023-01-21T04:56:43.134Z,100427.44
2023-01-21T04:57:24.913Z,100405.50
2023-01-21T04:58:06.685Z,100425.75
2023-01-21T04:58:48.327Z,100430.78
2023-01-21T04:59:30.046Z,100408.19
2023-01-21T05:00:12.144Z,100434.13
2023-01-21T05:00:55.368Z,100411.56
2023-01-21T05:01:37.116Z,100432.28
2023-01-21T05:02:19.057Z,100428.00
2023-01-21T05:03:00.764Z,100409.78
2023-01-21T05:03:42.492Z,100432.06
2023-01-21T05:04:24.144Z,100436.34
2023-01-21T05:05:06.411Z,100423.81
2023-01-21T05:05:48.133Z,100407.09
2023-01-21T05:06:32.614Z,100413.50
2023-01-21T05:07:17.344Z,100417.78
2023-01-21T05:07:59.188Z,100432.66
2023-01-21T05:08:40.828Z,100436.16
2023-01-21T05:09:22.542Z,100438.69
2023-01-21T05:10:04.777Z,100436.34
2023-01-21T05:10:46.521Z,100430.41
2023-01-21T05:11:28.303Z,100425.94
2023-01-21T05:12:11.897Z,100424.28
2023-01-21T05:12:53.689Z,100435.25
2023-01-21T05:13:35.398Z,100424.00
2023-01-21T05:14:17.039Z,100420.47
2023-01-21T05:14:58.752Z,100396.97
2023-01-21T05:15:43.333Z,100436.44
2023-01-21T05:16:25.078Z,100424.00
2023-01-21T05:17:06.681Z,100405.50
2023-01-21T05:17:48.323Z,100431.69
2023-01-21T05:18:32.267Z,100432.63
2023-01-21T05:19:15.325Z,100441.16
2023-01-21T05:19:56.982Z,100436.22
2023-01-21T05:20:38.638Z,100443.94
2023-01-21T05:21:22.939Z,100441.34
2023-01-21T05:22:04.559Z,100443.09
2023-01-21T05:22:47.992Z,100410.88
2023-01-21T05:23:29.899Z,100429.56
2023-01-21T05:24:11.705Z,100433.47
2023-01-21T05:24:56.013Z,100403.34
2023-01-21T05:25:37.647Z,100410.22
2023-01-21T05:26:19.469Z,100416.47
2023-01-21T05:27:01.389Z,100447.75
2023-01-21T05:27:43.049Z,100432.69
2023-01-21T05:28:24.714Z,100418.47
2023-01-21T05:29:06.403Z,100426.09
2023-01-21T05:29:48.575Z,100449.59
2023-01-21T05:30:30.278Z,100451.28
2023-01-21T05:31:12.056Z,100442.06
2023-01-21T05:31:53.820Z,100441.22
2023-01-21T05:32:38.483Z,100453.97
2023-01-21T05:33:25.996Z,100445.50
2023-01-21T05:34:07.666Z,100458.03
2023-01-21T05:34:49.348Z,100453.88
2023-01-21T05:35:31.081Z,100421.75
2023-01-21T05:36:13.059Z,100450.72
2023-01-21T05:36:54.705Z,100450.47
2023-01-21T05:37:36.315Z,100451.41
2023-01-21T05:38:18.038Z,100441.84
2023-01-21T05:38:59.659Z,100441.84
2023-01-21T05:39:41.377Z,100413.69
2023-01-21T05:40:23.081Z,100456.13
2023-01-21T05:41:05.090Z,100452.78
2023-01-21T05:41:46.784Z,100456.38
2023-01-21T05:42:28.462Z,100454.72
2023-01-21T05:43:10.156Z,100459.19
2023-01-21T05:43:51.859Z,100449.13
2023-01-21T05:44:33.542Z,100435.94
2023-01-21T05:45:15.287Z,100457.94
2023-01-21T05:45:59.346Z,100432.88
2023-01-21T05:46:41.039Z,100459.25
2023-01-21T05:47:25.441Z,100458.41
2023-01-21T05:48:07.055Z,100460.84
2023-01-21T05:48:49.535Z,100448.69
2023-01-21T05:49:33.993Z,100439.13
2023-01-21T05:50:16.248Z,100470.63
2023-01-21T05:50:58.572Z,100464.03
2023-01-21T05:51:40.347Z,100464.31
2023-01-21T05:52:22.079Z,100466.66
2023-01-21T05:53:04.692Z,100434.34
2023-01-21T05:53:46.559Z,100463.13
2023-01-21T05:54:28.396Z,100447.03
2023-01-21T05:55:10.266Z,100463.50
2023-01-21T05:55:53.978Z,100461.53
2023-01-21T05:56:35.834Z,100431.53
2023-01-21T05:57:17.548Z,100454.84
2023-01-21T05:57:59.514Z,100464.59
2023-01-21T05:58:41.168Z,100436.91
2023-01-21T05:59:22.908Z,100449.47
2023-01-21T06:00:05.049Z,100465.44
2023-01-21T06:00:48.360Z,100451.97
2023-01-21T06:01:30.006Z,100473.72
2023-01-21T06:02:11.720Z,100470.97
2023-01-21T06:02:53.390Z,100446.66
2023-01-21T06:03:35.991Z,100464.94
2023-01-21T06:04:17.719Z,100439.25
2023-01-21T06:04:59.408Z,100471.09
2023-01-21T06:05:41.738Z,100451.22
2023-01-21T06:06:23.403Z,100460.63
2023-01-21T06:07:05.054Z,100479.47
2023-01-21T06:07:46.871Z,100465.53
2023-01-21T06:08:28.512Z,100472.50
2023-01-21T06:09:10.285Z,100440.81
2023-01-21T06:09:54.912Z,100486.53
2023-01-21T06:10:37.161Z,100480.03
2023-01-21T06:11:18.887Z,100485.97
2023-01-21T06:12:00.515Z,100471.84
2023-01-21T06:12:44.776Z,100485.97
2023-01-21T06:13:26.501Z,100478.06
2023-01-21T06:14:08.239Z,100454.47
2023-01-21T06:14:49.869Z,100490.44
2023-01-21T06:15:33.610Z,100471.38
2023-01-21T06:16:15.352Z,100475.47
2023-01-21T06:16:57.100Z,100480.75
2023-01-21T06:17:40.245Z,100472.22
2023-01-21T06:18:22.880Z,100482.34
2023-01-21T06:19:04.525Z,100459.75
2023-01-21T06:19:46.152Z,100489.75
2023-01-21T06:20:31.563Z,100408.50
2023-01-21T06:21:13.193Z,100473.13
2023-01-21T06:21:54.828Z,100478.44
2023-01-21T06:22:36.726Z,100481.06
2023-01-21T06:23:18.583Z,100490.22
2023-01-21T06:24:00.668Z,100472.69
2023-01-21T06:24:42.371Z,100481.78
2023-01-21T06:25:25.651Z,100486.97
2023-01-21T06:26:07.295Z,100491.72
2023-01-21T06:26:50.246Z,100483.81
2023-01-21T06:27:34.147Z,100498.78
2023-01-21T06:28:15.783Z,100485.69
2023-01-21T06:28:57.733Z,100503.06
2023-01-21T06:29:39.408Z,100508.25
2023-01-21T06:30:25.108Z,100482.59
2023-01-21T06:31:06.947Z,100502.88
2023-01-21T06:31:48.788Z,100502.75
2023-01-21T06:32:30.446Z,100497.84
2023-01-21T06:33:12.173Z,100504.56
2023-01-21T06:33:53.794Z,100498.88
2023-01-21T06:34:35.403Z,100504.75
2023-01-21T06:35:18.006Z,100496.53
2023-01-21T06:35:59.767Z,100498.97
2023-01-21T06:36:42.700Z,100492.91
2023-01-21T06:37:24.503Z,100503.91
2023-01-21T06:38:06.241Z,100475.75
2023-01-21T06:38:47.917Z,100509.53
2023-01-21T06:39:31.865Z,100500.34
2023-01-21T06:40:14.750Z,100464.72
2023-01-21T06:40:56.485Z,100507.09
2023-01-21T06:41:38.410Z,100476.44
2023-01-21T06:42:23.181Z,100489.88
2023-01-21T06:43:04.906Z,100506.63
2023-01-21T06:43:46.498Z,100514.69
2023-01-21T06:44:28.228Z,100513.09
2023-01-21T06:45:10.257Z,100510.97
2023-01-21T06:45:51.954Z,100510.75
2023-01-21T06:46:34.094Z,100515.31
2023-01-21T06:47:15.806Z,100480.75
2023-01-21T06:47:57.463Z,100513.56
2023-01-21T06:48:48.057Z,100480.16
2023-01-21T06:49:29.755Z,100510.47
2023-01-21T06:50:14.404Z,100489.28
2023-01-21T06:50:56.233Z,100516.16
2023-01-21T06:51:38.083Z,100516.50
2023-01-21T06:52:19.803Z,100521.53
2023-01-21T06:53:01.476Z,100519.69
2023-01-21T06:53:43.134Z,100507.94
2023-01-21T06:54:24.774Z,100494.72
2023-01-21T06:55:06.720Z,100494.06
2023-01-21T06:55:48.443Z,100519.00
2023-01-21T06:56:30.238Z,100521.84
2023-01-21T06:57:12.194Z,100513.31
2023-01-21T06:57:54.147Z,100519.19
2023-01-21T06:58:35.825Z,100527.81
2023-01-21T06:59:17.598Z,100506.13
2023-01-21T06:59:59.267Z,100517.78
2023-01-21T07:00:40.910Z,100518.63
2023-01-21T07:01:22.648Z,100501.22
2023-01-21T07:02:04.358Z,100520.53
2023-01-21T07:02:46.131Z,100487.56
2023-01-21T07:03:29.131Z,100532.25
2023-01-21T07:04:10.911Z,100523.81
2023-01-21T07:04:52.658Z,100511.25
2023-01-21T07:05:34.390Z,100516.84
2023-01-21T07:06:16.008Z,100517.03
2023-01-21T07:06:57.845Z,100526.03
2023-01-21T07:07:39.499Z,100509.66
2023-01-21T07:08:21.212Z,100533.59
2023-01-21T07:09:03.872Z,100544.81
2023-01-21T07:09:45.600Z,100501.69
2023-01-21T07:10:27.299Z,100525.22
2023-01-21T07:11:09.035Z,100536.09
2023-01-21T07:11:50.845Z,100532.84
2023-01-21T07:12:32.618Z,100535.34
2023-01-21T07:13:14.276Z,100469.31
2023-01-21T07:13:56.004Z,100512.09
2023-01-21T07:14:37.755Z,100501.47
2023-01-21T07:15:19.824Z,100533.16
2023-01-21T07:16:01.851Z,100530.41
2023-01-21T07:16:43.645Z,100535.59
2023-01-21T07:17:25.376Z,100536.53
2023-01-21T07:18:07.116Z,100543.41
2023-01-21T07:18:48.862Z,100504.16
2023-01-21T07:19:30.584Z,100513.94
2023-01-21T07:20:17.672Z,100532.44
2023-01-21T07:20:59.403Z,100505.50
2023-01-21T07:21:43.834Z,100524.81
2023-01-21T07:22:25.488Z,100525.00
2023-01-21T07:23:07.147Z,100535.59
2023-01-21T07:23:51.602Z,100542.47
2023-01-21T07:24:33.288Z,100537.28
2023-01-21T07:25:16.590Z,100530.78
2023-01-21T07:25:58.363Z,100539.22
2023-01-21T07:26:41.491Z,100507.50
2023-01-21T07:27:23.233Z,100522.00
2023-01-21T07:28:05.040Z,100537.97
2023-01-21T07:28:46.733Z,100527.91
2023-01-21T07:29:28.775Z,100531.34
2023-01-21T07:30:16.626Z,100517.28
2023-01-21T07:31:00.180Z,100534.16
2023-01-21T07:31:42.064Z,100529.78
2023-01-21T07:32:23.782Z,100523.16
2023-01-21T07:33:06.908Z,100543.34
2023-01-21T07:33:48.544Z,100547.88
2023-01-21T07:34:30.238Z,100555.25
2023-01-21T07:35:12.181Z,100533.31
2023-01-21T07:35:54.337Z,100559.69
2023-01-21T07:36:36.090Z,100554.31
2023-01-21T07:37:17.742Z,100549.38
2023-01-21T07:37:59.626Z,100535.91
2023-01-21T07:38:41.341Z,100503.06
2023-01-21T07:39:22.981Z,100552.28
2023-01-21T07:40:04.973Z,100564.28
2023-01-21T07:40:50.237Z,100553.88
2023-01-21T07:41:31.994Z,100559.00
2023-01-21T07:42:13.679Z,100556.38
2023-01-21T07:42:56.301Z,100512.09
2023-01-21T07:43:39.001Z,100527.53
2023-01-21T07:44:20.899Z,100568.81
2023-01-21T07:45:03.852Z,100546.22
2023-01-21T07:45:45.967Z,100556.16
2023-01-21T07:46:27.894Z,100567.97
2023-01-21T07:47:10.611Z,100529.44
2023-01-21T07:47:52.774Z,100568.91
2023-01-21T07:48:34.937Z,100553.25
2023-01-21T07:49:18.219Z,100562.44
2023-01-21T07:50:04.838Z,100528.59
2023-01-21T07:50:46.692Z,100570.66
2023-01-21T07:51:30.612Z,100579.03
2023-01-21T07:52:12.338Z,100552.06
2023-01-21T07:52:54.781Z,100555.41
2023-01-21T07:53:36.581Z,100560.28
2023-01-21T07:54:18.271Z,100582.88
2023-01-21T07:55:01.570Z,100573.13
2023-01-21T07:55:43.420Z,100562.34
2023-01-21T07:56:26.805Z,100583.72
2023-01-21T07:57:08.631Z,100551.13
2023-01-21T07:57:50.300Z,100577.34
2023-01-21T07:58:32.117Z,100546.47
2023-01-21T07:59:15.055Z,100581.13
2023-01-21T07:59:56.767Z,100571.00
2023-01-21T08:00:38.387Z,100562.13
2023-01-21T08:01:20.116Z,100548.91
2023-01-21T08:02:02.100Z,100574.94
2023-01-21T08:02:44.694Z,100575.03
2023-01-21T08:03:26.437Z,100554.34
2023-01-21T08:04:09.745Z,100547.56
2023-01-21T08:04:51.472Z,100584.50
2023-01-21T08:05:33.209Z,100575.03
2023-01-21T08:06:15.352Z,100554.56
2023-01-21T08:06:57.277Z,100579.47
2023-01-21T08:07:38.961Z,100570.31
2023-01-21T08:08:20.704Z,100584.06
2023-01-21T08:09:08.308Z,100584.53
2023-01-21T08:09:50.005Z,100567.53
2023-01-21T08:10:31.657Z,100549.53
2023-01-21T08:11:13.359Z,100583.19
2023-01-21T08:11:55.190Z,100578.00
2023-01-21T08:12:36.887Z,100562.09
2023-01-21T08:13:18.753Z,100547.84
2023-01-21T08:14:00.596Z,100540.41
2023-01-21T08:14:42.339Z,100584.88
2023-01-21T08:15:24.043Z,100562.25
2023-01-21T08:16:11.583Z,100584.69
2023-01-21T08:16:53.241Z,100545.00
2023-01-21T08:17:39.046Z,100565.84
2023-01-21T08:18:27.714Z,100576.28
2023-01-21T08:19:09.450Z,100587.75
2023-01-21T08:19:51.067Z,100584.00
2023-01-21T08:20:32.758Z,100581.16
2023-01-21T08:21:14.525Z,100593.91
2023-01-21T08:21:56.189Z,100583.22
2023-01-21T08:22:38.231Z,100575.50
2023-01-21T08:23:22.576Z,100549.47
2023-01-21T08:24:04.753Z,100576.84
2023-01-21T08:24:46.391Z,100552.47
2023-01-21T08:25:28.116Z,100532.09
2023-01-21T08:26:09.870Z,100573.50